createdAt,value
2019-05-09T00:02:10.068Z,9.49
2019-05-09T00:04:37.828Z,9.56
2019-05-09T00:07:05.328Z,9.61
2019-05-09T00:09:33.717Z,9.84
2019-05-09T00:12:03.547Z,9.58
2019-05-09T00:14:30.584Z,9.56
2019-05-09T00:16:58.084Z,9.57
2019-05-09T00:19:26.248Z,9.39
2019-05-09T00:21:55.122Z,9.36
2019-05-09T00:24:23.862Z,9.41
2019-05-09T00:26:53.342Z,9.42
2019-05-09T00:29:34.612Z,9.40
2019-05-09T00:32:03.756Z,9.28
2019-05-09T00:34:49.228Z,9.36
2019-05-09T00:37:16.735Z,9.22
2019-05-09T00:39:44.224Z,9.35
2019-05-09T00:42:13.681Z,9.38
2019-05-09T00:44:43.245Z,9.29
2019-05-09T00:47:13.514Z,9.20
2019-05-09T00:49:43.390Z,9.37
2019-05-09T00:52:10.367Z,9.30
2019-05-09T00:54:37.867Z,9.33
2019-05-09T00:57:05.365Z,9.13
2019-05-09T00:59:33.636Z,9.20
2019-05-09T01:02:03.218Z,9.21
2019-05-09T01:04:33.248Z,9.21
2019-05-09T01:07:03.448Z,9.06
2019-05-09T01:09:33.217Z,8.98
2019-05-09T01:12:00.368Z,8.94
2019-05-09T01:14:27.877Z,8.90
2019-05-09T01:16:55.368Z,8.96
2019-05-09T01:19:23.535Z,8.97
2019-05-09T01:21:54.035Z,8.99
2019-05-09T01:24:23.130Z,9.02
2019-05-09T01:26:50.128Z,8.96
2019-05-09T01:29:17.632Z,8.95
2019-05-09T01:31:45.124Z,9.05
2019-05-09T01:34:20.265Z,8.91
2019-05-09T01:37:06.927Z,8.75
2019-05-09T01:39:34.888Z,8.66
2019-05-09T01:42:03.258Z,8.62
2019-05-09T01:44:33.312Z,8.64
2019-05-09T01:47:00.275Z,8.68
2019-05-09T01:49:27.776Z,8.71
2019-05-09T01:51:55.263Z,8.62
2019-05-09T01:54:24.192Z,8.64
2019-05-09T01:56:53.609Z,8.67
2019-05-09T01:59:20.920Z,8.46
2019-05-09T02:01:48.412Z,8.55
2019-05-09T02:04:15.916Z,8.47
2019-05-09T02:06:44.033Z,8.46
2019-05-09T02:09:13.885Z,8.44
2019-05-09T02:11:44.968Z,8.53
2019-05-09T02:14:13.502Z,8.52
2019-05-09T02:16:58.677Z,8.44
2019-05-09T02:19:28.780Z,8.44
2019-05-09T02:21:56.549Z,8.39
2019-05-09T02:24:24.040Z,8.30
2019-05-09T02:26:53.313Z,8.42
2019-05-09T02:29:23.171Z,8.47
2019-05-09T02:31:50.651Z,8.44
2019-05-09T02:34:18.188Z,8.43
2019-05-09T02:36:49.393Z,8.36
2019-05-09T02:39:18.646Z,8.39
2019-05-09T02:42:02.518Z,8.23
2019-05-09T02:44:14.101Z,8.33
2019-05-09T02:46:43.238Z,8.21
2019-05-09T02:49:10.753Z,8.25
2019-05-09T02:51:39.102Z,8.23
2019-05-09T02:54:09.988Z,8.34
2019-05-09T02:56:38.574Z,8.24
2019-05-09T02:59:18.925Z,8.28
2019-05-09T03:01:50.525Z,8.33
2019-05-09T03:04:19.012Z,8.22
2019-05-09T03:06:49.273Z,8.23
2019-05-09T03:09:18.733Z,8.30
2019-05-09T03:11:48.294Z,8.18
2019-05-09T03:14:14.378Z,8.23
2019-05-09T03:16:41.876Z,8.27
2019-05-09T03:19:09.541Z,8.35
2019-05-09T03:21:39.343Z,8.27
2019-05-09T03:24:09.864Z,8.17
2019-05-09T03:26:38.666Z,8.21
2019-05-09T03:29:11.564Z,8.24
2019-05-09T03:31:40.838Z,8.22
2019-05-09T03:34:09.358Z,8.26
2019-05-09T03:36:38.546Z,8.20
2019-05-09T03:39:08.183Z,8.22
2019-05-09T03:41:35.824Z,8.11
2019-05-09T03:44:03.314Z,8.17
2019-05-09T03:46:41.684Z,8.13
2019-05-09T03:49:10.809Z,8.21
2019-05-09T03:51:38.312Z,8.20
2019-05-09T03:54:07.882Z,8.21
2019-05-09T03:56:37.547Z,8.23
2019-05-09T03:59:05.132Z,8.16
2019-05-09T04:01:32.649Z,8.13
2019-05-09T04:04:00.188Z,8.14
2019-05-09T04:06:28.342Z,8.13
2019-05-09T04:08:58.263Z,8.15
2019-05-09T04:11:27.529Z,8.21
2019-05-09T04:13:59.316Z,8.24
2019-05-09T04:16:27.684Z,8.22
2019-05-09T04:18:55.399Z,8.15
2019-05-09T04:21:23.225Z,8.10
2019-05-09T04:23:51.524Z,8.18
2019-05-09T04:26:20.668Z,8.18
2019-05-09T04:28:48.928Z,8.10
2019-05-09T04:31:17.827Z,8.10
2019-05-09T04:33:47.354Z,8.07
2019-05-09T04:36:15.493Z,8.09
2019-05-09T04:38:43.755Z,8.08
2019-05-09T04:41:11.275Z,8.07
2019-05-09T04:43:42.144Z,8.05
2019-05-09T04:46:13.113Z,8.11
2019-05-09T04:48:38.864Z,8.09
2019-05-09T04:51:07.803Z,8.19
2019-05-09T04:53:37.750Z,8.11
2019-05-09T04:56:19.429Z,8.23
2019-05-09T04:58:48.192Z,8.20
2019-05-09T05:01:19.745Z,8.23
2019-05-09T05:03:48.006Z,8.23
2019-05-09T05:06:18.762Z,8.21
2019-05-09T05:08:44.776Z,8.13
2019-05-09T05:11:12.264Z,8.13
2019-05-09T05:13:39.766Z,8.19
2019-05-09T05:16:08.456Z,8.20
2019-05-09T05:18:37.416Z,8.23
2019-05-09T05:21:05.111Z,8.24
2019-05-09T05:23:34.537Z,8.24
2019-05-09T05:26:02.026Z,8.24
2019-05-09T05:28:29.519Z,8.28
2019-05-09T05:30:58.186Z,8.26
2019-05-09T05:33:27.858Z,8.22
2019-05-09T05:35:59.979Z,8.22
2019-05-09T05:38:27.780Z,8.26
2019-05-09T05:40:57.705Z,8.36
2019-05-09T05:43:38.538Z,8.37
2019-05-09T05:45:55.351Z,8.48
2019-05-09T05:48:24.498Z,8.53
2019-05-09T05:50:52.057Z,8.56
2019-05-09T05:53:19.556Z,8.64
2019-05-09T05:55:50.471Z,8.63
2019-05-09T05:58:17.990Z,8.63
2019-05-09T06:00:45.640Z,8.63
2019-05-09T06:03:13.912Z,8.57
2019-05-09T06:05:41.397Z,8.57
2019-05-09T06:08:09.573Z,8.71
2019-05-09T06:10:37.897Z,8.96
2019-05-09T06:13:07.695Z,9.21
2019-05-09T06:15:34.629Z,9.23
2019-05-09T06:18:02.128Z,9.14
2019-05-09T06:20:29.621Z,9.29
2019-05-09T06:22:58.144Z,9.39
2019-05-09T06:25:30.073Z,9.31
2019-05-09T06:27:55.693Z,9.24
2019-05-09T06:30:28.116Z,9.29
2019-05-09T06:32:57.836Z,9.41
2019-05-09T06:35:24.932Z,9.66
2019-05-09T06:37:52.425Z,10.00
2019-05-09T06:40:21.529Z,10.48
2019-05-09T06:42:49.560Z,10.78
2019-05-09T06:45:32.440Z,10.93
2019-05-09T06:48:00.396Z,10.74
2019-05-09T06:50:28.127Z,10.95
2019-05-09T06:52:57.318Z,11.05
2019-05-09T06:55:27.642Z,11.19
2019-05-09T06:57:58.363Z,11.44
2019-05-09T07:00:28.749Z,11.61
2019-05-09T07:03:01.044Z,11.68
2019-05-09T07:05:48.114Z,11.08
2019-05-09T07:08:18.334Z,11.01
2019-05-09T07:10:48.327Z,10.88
2019-05-09T07:13:15.492Z,10.96
2019-05-09T07:15:42.999Z,11.23
2019-05-09T07:18:10.517Z,11.25
2019-05-09T07:20:38.072Z,11.23
2019-05-09T07:23:08.377Z,11.36
2019-05-09T07:25:40.096Z,11.57
2019-05-09T07:28:07.764Z,11.90
2019-05-09T07:30:52.337Z,11.85
2019-05-09T07:33:24.424Z,12.06
2019-05-09T07:35:51.929Z,11.91
2019-05-09T07:38:29.352Z,11.76
2019-05-09T07:40:58.037Z,11.91
2019-05-09T07:43:28.058Z,12.21
2019-05-09T07:46:04.808Z,12.11
2019-05-09T07:48:32.305Z,12.24
2019-05-09T07:50:59.863Z,12.35
2019-05-09T07:53:28.386Z,12.47
2019-05-09T07:55:58.059Z,12.42
2019-05-09T07:58:25.189Z,12.39
2019-05-09T08:00:52.692Z,12.71
2019-05-09T08:03:20.184Z,12.57
2019-05-09T08:05:47.760Z,12.23
2019-05-09T08:08:18.355Z,12.22
2019-05-09T08:10:45.067Z,12.46
2019-05-09T08:13:12.565Z,12.55
2019-05-09T08:15:40.072Z,12.44
2019-05-09T08:18:08.430Z,12.41
2019-05-09T08:20:40.390Z,12.86
2019-05-09T08:23:08.442Z,13.18
2019-05-09T08:25:34.810Z,13.09
2019-05-09T08:28:02.540Z,13.05
2019-05-09T08:30:35.896Z,13.10
2019-05-09T08:33:00.292Z,12.84
2019-05-09T08:35:28.091Z,13.00
2019-05-09T08:37:58.307Z,13.16
2019-05-09T08:40:28.344Z,13.59
2019-05-09T08:42:55.655Z,13.54
2019-05-09T08:45:27.598Z,13.35
2019-05-09T08:47:53.652Z,13.64
2019-05-09T08:50:28.461Z,13.85
2019-05-09T08:52:57.673Z,13.84
2019-05-09T08:55:27.532Z,14.06
2019-05-09T08:57:54.948Z,13.61
2019-05-09T09:00:22.444Z,13.25
2019-05-09T09:02:50.269Z,13.11
2019-05-09T09:05:18.792Z,13.14
2019-05-09T09:07:48.755Z,13.67
2019-05-09T09:10:18.643Z,13.59
2019-05-09T09:12:47.742Z,13.62
2019-05-09T09:15:14.864Z,13.83
2019-05-09T09:17:43.136Z,13.23
2019-05-09T09:20:10.638Z,12.83
2019-05-09T09:22:38.144Z,12.72
2019-05-09T09:25:07.732Z,13.25
2019-05-09T09:27:34.869Z,13.60
2019-05-09T09:30:16.386Z,13.56
2019-05-09T09:32:31.665Z,14.02
2019-05-09T09:34:59.168Z,14.30
2019-05-09T09:37:37.497Z,14.14
2019-05-09T09:39:58.236Z,13.60
2019-05-09T09:42:28.208Z,13.39
2019-05-09T09:44:55.265Z,13.10
2019-05-09T09:47:23.535Z,13.46
2019-05-09T09:49:51.159Z,13.37
2019-05-09T09:52:18.956Z,13.65
2019-05-09T09:54:48.088Z,13.66
2019-05-09T09:57:19.076Z,13.87
2019-05-09T09:59:53.320Z,14.39
2019-05-09T10:02:22.468Z,14.03
2019-05-09T10:04:50.208Z,14.26
2019-05-09T10:07:18.951Z,14.68
2019-05-09T10:09:47.988Z,14.78
2019-05-09T10:12:18.060Z,14.93
2019-05-09T10:14:49.460Z,15.19
2019-05-09T10:17:34.886Z,15.18
2019-05-09T10:20:04.021Z,15.30
2019-05-09T10:22:31.562Z,15.15
2019-05-09T10:24:59.132Z,15.36
2019-05-09T10:27:28.332Z,15.25
2019-05-09T10:29:57.463Z,15.25
2019-05-09T10:32:25.144Z,15.48
2019-05-09T10:34:52.640Z,15.05
2019-05-09T10:37:20.142Z,15.10
2019-05-09T10:39:49.042Z,15.36
2019-05-09T10:42:21.155Z,14.67
2019-05-09T10:45:07.500Z,14.66
2019-05-09T10:47:37.775Z,14.76
2019-05-09T10:50:08.463Z,15.28
2019-05-09T10:52:36.204Z,14.91
2019-05-09T10:55:04.477Z,14.67
2019-05-09T10:57:32.636Z,14.67
2019-05-09T11:00:01.141Z,15.29
2019-05-09T11:02:28.644Z,15.56
2019-05-09T11:04:57.626Z,14.75
2019-05-09T11:07:25.419Z,14.72
2019-05-09T11:09:53.245Z,15.31
2019-05-09T11:12:20.764Z,15.82
2019-05-09T11:14:48.924Z,15.21
2019-05-09T11:17:21.430Z,14.78
2019-05-09T11:19:48.068Z,14.79
2019-05-09T11:22:14.964Z,14.82
2019-05-09T11:24:46.642Z,15.18
2019-05-09T11:27:12.032Z,15.75
2019-05-09T11:29:39.540Z,15.85
2019-05-09T11:32:08.180Z,15.61
2019-05-09T11:34:37.569Z,16.07
2019-05-09T11:37:05.021Z,16.15
2019-05-09T11:39:39.726Z,15.98
2019-05-09T11:42:01.740Z,15.95
2019-05-09T11:44:29.245Z,15.83
2019-05-09T11:46:58.218Z,15.72
2019-05-09T11:49:25.920Z,15.71
2019-05-09T11:51:53.411Z,15.58
2019-05-09T11:54:20.913Z,15.99
2019-05-09T11:56:48.674Z,16.21
2019-05-09T11:59:18.198Z,16.39
2019-05-09T12:01:48.035Z,16.12
2019-05-09T12:04:15.417Z,16.02
2019-05-09T12:06:42.908Z,16.25
2019-05-09T12:09:14.118Z,15.48
2019-05-09T12:11:44.194Z,15.66
2019-05-09T12:14:09.061Z,16.24
2019-05-09T12:16:38.095Z,17.27
2019-05-09T12:19:05.823Z,17.09
2019-05-09T12:21:33.316Z,16.29
2019-05-09T12:24:00.820Z,16.20
2019-05-09T12:26:29.214Z,15.92
2019-05-09T12:28:57.807Z,15.70
2019-05-09T12:31:25.605Z,15.97
2019-05-09T12:33:53.103Z,16.61
2019-05-09T12:36:20.922Z,16.37
2019-05-09T12:38:49.644Z,15.66
2019-05-09T12:41:18.927Z,15.96
2019-05-09T12:43:47.636Z,16.32
2019-05-09T12:46:15.147Z,15.77
2019-05-09T12:48:42.642Z,15.47
2019-05-09T12:51:10.157Z,15.61
2019-05-09T12:53:39.563Z,15.97
2019-05-09T12:56:08.167Z,16.68
2019-05-09T12:58:35.952Z,16.54
2019-05-09T13:01:04.224Z,16.05
2019-05-09T13:03:31.723Z,16.32
2019-05-09T13:05:59.228Z,16.75
2019-05-09T13:08:27.855Z,16.36
2019-05-09T13:10:55.610Z,15.60
2019-05-09T13:13:23.431Z,15.25
2019-05-09T13:16:01.547Z,15.40
2019-05-09T13:18:48.967Z,15.31
2019-05-09T13:21:18.718Z,15.30
2019-05-09T13:23:51.925Z,15.14
2019-05-09T13:26:15.626Z,15.13
2019-05-09T13:28:43.116Z,15.05
2019-05-09T13:31:10.628Z,15.13
2019-05-09T13:33:40.996Z,14.95
2019-05-09T13:36:09.225Z,15.10
2019-05-09T13:38:37.826Z,15.04
2019-05-09T13:41:08.529Z,15.08
2019-05-09T13:43:44.695Z,15.21
2019-05-09T13:46:04.684Z,15.53
2019-05-09T13:48:56.255Z,15.44
2019-05-09T13:51:01.453Z,15.19
2019-05-09T13:53:28.970Z,15.13
2019-05-09T13:55:57.821Z,15.25
2019-05-09T13:58:25.565Z,15.21
2019-05-09T14:00:59.254Z,15.05
2019-05-09T14:03:22.297Z,14.96
2019-05-09T14:05:49.791Z,14.77
2019-05-09T14:08:18.211Z,14.83
2019-05-09T14:10:48.139Z,14.74
2019-05-09T14:13:15.883Z,14.79
2019-05-09T14:15:44.243Z,14.91
2019-05-09T14:18:11.956Z,14.96
2019-05-09T14:20:39.536Z,14.77
2019-05-09T14:23:11.406Z,14.81
2019-05-09T14:25:38.135Z,14.80
2019-05-09T14:28:08.306Z,14.54
2019-05-09T14:30:35.365Z,14.57
2019-05-09T14:33:02.974Z,14.75
2019-05-09T14:35:30.532Z,14.66
2019-05-09T14:37:59.109Z,14.63
2019-05-09T14:40:28.078Z,14.82
2019-05-09T14:42:57.817Z,15.01
2019-05-09T14:45:27.418Z,14.89
2019-05-09T14:47:54.667Z,14.56
2019-05-09T14:50:22.156Z,14.35
2019-05-09T14:52:50.642Z,14.48
2019-05-09T14:55:18.292Z,14.52
2019-05-09T14:57:47.967Z,14.52
2019-05-09T15:00:15.031Z,14.48
2019-05-09T15:02:42.540Z,14.46
2019-05-09T15:05:10.808Z,14.35
2019-05-09T15:07:39.136Z,14.46
2019-05-09T15:10:08.587Z,14.31
2019-05-09T15:12:38.780Z,14.01
2019-05-09T15:15:07.615Z,14.02
2019-05-09T15:17:35.434Z,14.11
2019-05-09T15:20:03.393Z,14.17
2019-05-09T15:22:31.669Z,14.40
2019-05-09T15:24:59.948Z,14.32
2019-05-09T15:27:27.763Z,14.32
2019-05-09T15:29:55.425Z,14.43
2019-05-09T15:32:22.931Z,14.63
2019-05-09T15:34:50.430Z,14.74
2019-05-09T15:37:18.635Z,14.77
2019-05-09T15:39:48.458Z,14.82
2019-05-09T15:42:18.079Z,14.67
2019-05-09T15:44:44.941Z,14.59
2019-05-09T15:47:14.083Z,14.54
2019-05-09T15:49:41.578Z,14.57
2019-05-09T15:52:09.081Z,14.65
2019-05-09T15:54:38.629Z,14.81
2019-05-09T15:57:08.472Z,14.73
2019-05-09T15:59:35.156Z,14.60
2019-05-09T16:02:03.431Z,14.69
2019-05-09T16:04:31.695Z,14.87
2019-05-09T16:06:59.214Z,14.45
2019-05-09T16:09:28.617Z,14.38
2019-05-09T16:11:56.237Z,14.49
2019-05-09T16:14:23.727Z,14.58
2019-05-09T16:16:51.224Z,14.31
2019-05-09T16:19:19.574Z,14.17
2019-05-09T16:21:47.762Z,14.10
2019-05-09T16:24:15.450Z,14.10
2019-05-09T16:26:42.945Z,13.98
2019-05-09T16:29:10.453Z,13.97
2019-05-09T16:31:38.814Z,14.15
2019-05-09T16:34:09.397Z,14.11
2019-05-09T16:36:38.275Z,14.21
2019-05-09T16:39:07.387Z,13.89
2019-05-09T16:41:35.081Z,14.02
2019-05-09T16:44:02.590Z,14.08
2019-05-09T16:46:30.091Z,14.09
2019-05-09T16:48:58.152Z,14.03
2019-05-09T16:51:25.855Z,13.91
2019-05-09T16:53:53.364Z,14.08
2019-05-09T16:56:20.892Z,13.90
2019-05-09T16:58:48.393Z,13.80
2019-05-09T17:01:18.561Z,13.80
2019-05-09T17:03:45.593Z,13.78
2019-05-09T17:06:13.088Z,13.62
2019-05-09T17:08:40.596Z,13.51
2019-05-09T17:11:08.087Z,13.47
2019-05-09T17:13:35.617Z,13.51
2019-05-09T17:16:03.106Z,13.49
2019-05-09T17:18:30.620Z,13.47
2019-05-09T17:21:21.485Z,13.44
2019-05-09T17:23:47.598Z,13.50
2019-05-09T17:26:17.560Z,13.38
2019-05-09T17:28:45.148Z,13.53
2019-05-09T17:31:12.696Z,13.49
2019-05-09T17:33:40.201Z,13.47
2019-05-09T17:36:07.697Z,13.51
2019-05-09T17:38:35.447Z,13.63
2019-05-09T17:41:02.992Z,13.52
2019-05-09T17:43:30.514Z,13.58
2019-05-09T17:45:58.613Z,13.64
2019-05-09T17:48:28.526Z,13.63
2019-05-09T17:50:57.864Z,13.65
2019-05-09T17:53:24.984Z,13.60
2019-05-09T17:55:53.260Z,13.57
2019-05-09T17:58:29.312Z,13.46
2019-05-09T18:00:50.060Z,13.32
2019-05-09T18:03:18.170Z,13.13
2019-05-09T18:05:48.358Z,12.97
2019-05-09T18:08:15.156Z,12.72
2019-05-09T18:10:43.351Z,12.72
2019-05-09T18:13:11.612Z,12.55
2019-05-09T18:15:39.123Z,12.27
2019-05-09T18:18:06.787Z,12.14
2019-05-09T18:20:34.338Z,12.34
2019-05-09T18:23:03.384Z,12.34
2019-05-09T18:25:31.063Z,12.32
2019-05-09T18:27:58.548Z,12.42
2019-05-09T18:30:27.924Z,12.35
2019-05-09T18:33:00.074Z,12.44
2019-05-09T18:35:29.453Z,12.30
2019-05-09T18:37:58.859Z,12.34
2019-05-09T18:40:28.184Z,12.06
2019-05-09T18:42:58.225Z,12.26
2019-05-09T18:45:25.191Z,11.55
2019-05-09T18:47:52.691Z,11.52
2019-05-09T18:50:20.197Z,11.21
2019-05-09T18:52:47.687Z,11.05
2019-05-09T18:55:15.193Z,10.96
2019-05-09T18:57:42.689Z,10.63
2019-05-09T19:00:10.770Z,10.78
2019-05-09T19:02:38.684Z,10.72
2019-05-09T19:05:06.457Z,10.33
2019-05-09T19:07:33.948Z,10.42
2019-05-09T19:10:01.452Z,10.21
2019-05-09T19:12:28.993Z,10.02
2019-05-09T19:14:56.516Z,9.87
2019-05-09T19:17:40.933Z,9.99
2019-05-09T19:20:19.331Z,9.92
2019-05-09T19:22:46.821Z,9.85
2019-05-09T19:25:14.617Z,9.72
2019-05-09T19:27:42.161Z,9.59
2019-05-09T19:30:09.652Z,9.66
2019-05-09T19:32:37.151Z,9.55
2019-05-09T19:35:05.413Z,9.41
2019-05-09T19:37:32.916Z,9.44
2019-05-09T19:40:00.408Z,9.36
2019-05-09T19:42:27.908Z,9.39
2019-05-09T19:44:55.427Z,9.36
2019-05-09T19:47:22.932Z,9.28
2019-05-09T19:49:50.416Z,9.39
2019-05-09T19:52:18.323Z,9.31
2019-05-09T19:54:46.598Z,9.25
2019-05-09T19:57:14.119Z,9.20
2019-05-09T19:59:41.604Z,9.23
2019-05-09T20:02:09.130Z,9.13
2019-05-09T20:04:36.603Z,9.02
2019-05-09T20:07:04.109Z,9.01
2019-05-09T20:09:45.299Z,8.84
2019-05-09T20:12:29.516Z,8.76
2019-05-09T20:14:56.997Z,8.80
2019-05-09T20:17:24.928Z,8.80
2019-05-09T20:19:52.462Z,8.66
2019-05-09T20:22:19.962Z,8.58
2019-05-09T20:24:47.446Z,8.64
2019-05-09T20:27:15.695Z,8.65
2019-05-09T20:29:43.521Z,8.68
2019-05-09T20:32:11.683Z,8.57
2019-05-09T20:34:39.898Z,8.53
2019-05-09T20:37:07.418Z,8.61
2019-05-09T20:39:35.140Z,8.63
2019-05-09T20:42:02.829Z,8.78
2019-05-09T20:44:31.281Z,8.77
2019-05-09T20:46:58.964Z,8.70
2019-05-09T20:49:26.641Z,8.76
2019-05-09T20:51:54.330Z,8.73
2019-05-09T20:54:22.023Z,8.77
2019-05-09T20:56:49.965Z,8.74
2019-05-09T20:59:17.668Z,8.71
2019-05-09T21:01:45.341Z,8.82
2019-05-09T21:04:13.025Z,8.69
2019-05-09T21:06:40.695Z,8.75
2019-05-09T21:09:09.147Z,8.51
2019-05-09T21:11:36.824Z,8.46
2019-05-09T21:14:05.284Z,8.50
2019-05-09T21:16:33.032Z,8.42
2019-05-09T21:19:00.720Z,8.39
2019-05-09T21:21:28.401Z,8.43
2019-05-09T21:23:56.089Z,8.38
2019-05-09T21:26:23.760Z,8.33
2019-05-09T21:28:51.441Z,8.36
2019-05-09T21:31:19.116Z,8.48
2019-05-09T21:33:46.799Z,8.59
2019-05-09T21:36:15.061Z,8.63
2019-05-09T21:38:42.564Z,8.79
2019-05-09T21:41:10.054Z,8.87
2019-05-09T21:43:37.553Z,9.01
2019-05-09T21:46:05.046Z,8.92
2019-05-09T21:48:32.546Z,9.03
2019-05-09T21:51:00.027Z,8.96
2019-05-09T21:53:39.828Z,9.02
2019-05-09T21:55:56.753Z,9.08
2019-05-09T21:58:24.924Z,9.11
2019-05-09T22:00:53.059Z,9.13
2019-05-09T22:03:21.325Z,9.14
2019-05-09T22:05:49.143Z,9.05
2019-05-09T22:08:16.635Z,8.97
2019-05-09T22:10:44.128Z,9.05
2019-05-09T22:13:11.625Z,8.96
2019-05-09T22:15:39.381Z,8.79
2019-05-09T22:18:06.881Z,8.83
2019-05-09T22:20:34.373Z,8.76
2019-05-09T22:23:01.873Z,8.66
2019-05-09T22:25:30.028Z,8.74
2019-05-09T22:27:57.516Z,8.63
2019-05-09T22:30:25.016Z,8.63
2019-05-09T22:32:52.519Z,8.59
2019-05-09T22:35:20.092Z,8.52
2019-05-09T22:37:48.258Z,8.47
2019-05-09T22:40:15.848Z,8.29
2019-05-09T22:42:43.339Z,8.28
2019-05-09T22:45:10.840Z,8.19
2019-05-09T22:47:38.332Z,8.24
2019-05-09T22:50:06.147Z,8.38
2019-05-09T22:52:33.646Z,8.44
2019-05-09T22:55:01.139Z,8.63
2019-05-09T22:57:28.638Z,8.72
2019-05-09T22:59:56.140Z,8.67
2019-05-09T23:02:23.952Z,8.76
2019-05-09T23:04:51.448Z,8.77
2019-05-09T23:07:19.280Z,8.84
2019-05-09T23:09:46.780Z,8.81
2019-05-09T23:12:14.340Z,8.79
2019-05-09T23:14:41.836Z,8.84
2019-05-09T23:17:09.700Z,8.75
2019-05-09T23:19:37.217Z,8.80
2019-05-09T23:22:05.036Z,8.90
2019-05-09T23:24:34.455Z,8.88
2019-05-09T23:27:01.949Z,9.05
2019-05-09T23:29:29.523Z,9.01
2019-05-09T23:32:10.954Z,8.98
2019-05-09T23:34:38.459Z,8.98
2019-05-09T23:37:05.953Z,8.88
2019-05-09T23:39:35.093Z,8.99
2019-05-09T23:42:02.579Z,9.10
2019-05-09T23:44:30.080Z,9.12
2019-05-09T23:46:57.575Z,9.29
2019-05-09T23:49:25.072Z,9.37
2019-05-09T23:51:52.569Z,9.41
2019-05-09T23:54:47.372Z,9.42
2019-05-09T23:57:26.525Z,9.51
